Time,TemperatureF,DewpointF,PressureIn,WindDirection,WindDirectionDegrees,WindSpeedMPH,WindSpeedGustMPH,Humidity,HourlyPrecipIn,Conditions,Clouds,dailyrainin,SoftwareType,DateUTC
2013-06-07 00:00:00,59.9,56.1,29.18,North,0,0.9,1.8,87,0.00,,,0.00,WUHU216HW,2013-06-07 05:00:00,
2013-06-07 00:05:00,59.9,56.4,29.18,NNW,338,2.7,2.7,88,0.00,,,0.00,WUHU216HW,2013-06-07 05:05:00,
2013-06-07 00:10:00,59.8,56.3,29.18,North,0,1.1,2.7,88,0.00,,,0.00,WUHU216HW,2013-06-07 05:10:00,
2013-06-07 00:15:00,59.8,56.3,29.18,NNE,23,1.1,1.8,88,0.00,,,0.00,WUHU216HW,2013-06-07 05:15:00,
2013-06-07 00:20:00,59.6,56.1,29.18,North,0,0.7,2.0,88,0.00,,,0.00,WUHU216HW,2013-06-07 05:20:00,
2013-06-07 00:25:00,59.6,56.3,29.18,NNW,338,0.9,2.0,89,0.00,,,0.00,WUHU216HW,2013-06-07 05:25:00,
2013-06-07 00:30:00,59.4,55.9,29.18,NNW,338,0.0,1.8,88,0.00,,,0.00,WUHU216HW,2013-06-07 05:30:00,
2013-06-07 00:36:00,59.2,55.7,29.18,NNE,23,0.2,1.1,88,0.00,,,0.00,WUHU216HW,2013-06-07 05:36:00,
2013-06-07 00:41:00,59.0,55.8,29.18,North,0,0.0,2.9,89,0.00,,,0.00,WUHU216HW,2013-06-07 05:41:00,
2013-06-07 00:46:00,59.0,56.2,29.18,North,0,2.5,2.9,90,0.00,,,0.00,WUHU216HW,2013-06-07 05:46:00,
2013-06-07 00:51:00,59.0,55.8,29.18,NNE,23,0.0,2.5,89,0.00,,,0.00,WUHU216HW,2013-06-07 05:51:00,
2013-06-07 00:56:00,58.9,56.0,29.18,NNW,338,0.9,2.5,90,0.00,,,0.00,WUHU216HW,2013-06-07 05:56:00,
2013-06-07 01:01:00,58.7,55.8,29.18,North,0,2.2,2.2,90,0.00,,,0.00,WUHU216HW,2013-06-07 06:01:00,
2013-06-07 01:06:00,58.7,55.8,29.18,North,0,0.0,2.2,90,0.00,,,0.00,WUHU216HW,2013-06-07 06:06:00,
2013-06-07 01:11:00,58.5,55.6,29.18,North,0,0.7,1.1,90,0.00,,,0.00,WUHU216HW,2013-06-07 06:11:00,
2013-06-07 01:16:00,58.3,55.4,29.18,North,0,2.2,2.2,90,0.00,,,0.00,WUHU216HW,2013-06-07 06:16:00,
2013-06-07 01:21:00,58.3,55.4,29.18,North,0,1.1,2.2,90,0.00,,,0.00,WUHU216HW,2013-06-07 06:21:00,
2013-06-07 01:26:00,58.1,54.9,29.18,North,0,0.7,2.2,89,0.00,,,0.00,WUHU216HW,2013-06-07 06:26:00,
2013-06-07 01:32:00,58.1,54.9,29.18,North,0,0.9,1.3,89,0.00,,,0.00,WUHU216HW,2013-06-07 06:32:00,
2013-06-07 01:37:00,58.0,54.7,29.19,North,0,1.1,1.8,89,0.00,,,0.00,WUHU216HW,2013-06-07 06:37:00,
2013-06-07 01:42:00,58.0,55.1,29.19,NW,315,1.1,1.8,90,0.00,,,0.00,WUHU216HW,2013-06-07 06:42:00,
2013-06-07 01:47:00,58.0,55.4,29.18,North,0,1.3,2.5,91,0.00,,,0.00,WUHU216HW,2013-06-07 06:47:00,
2013-06-07 01:52:00,58.0,55.4,29.18,NNW,338,1.3,2.5,91,0.00,,,0.00,WUHU216HW,2013-06-07 06:52:00,
2013-06-07 01:57:00,58.0,55.4,29.18,NNW,338,0.7,3.4,91,0.00,,,0.00,WUHU216HW,2013-06-07 06:57:00,
2013-06-07 02:02:00,58.0,55.1,29.18,NNE,23,2.0,3.4,90,0.00,,,0.00,WUHU216HW,2013-06-07 07:02:00,
2013-06-07 02:07:00,58.0,55.4,29.18,North,0,2.5,2.9,91,0.00,,,0.00,WUHU216HW,2013-06-07 07:07:00,
2013-06-07 02:12:00,57.8,55.2,29.18,NNE,23,3.4,3.4,91,0.00,,,0.00,WUHU216HW,2013-06-07 07:12:00,
2013-06-07 02:17:00,57.8,55.2,29.18,North,0,1.3,3.4,91,0.00,,,0.00,WUHU216HW,2013-06-07 07:17:00,
2013-06-07 02:22:00,57.8,55.2,29.18,NNE,23,0.7,1.3,91,0.00,,,0.00,WUHU216HW,2013-06-07 07:22:00,
2013-06-07 02:27:00,57.8,55.2,29.18,North,0,0.0,1.1,91,0.00,,,0.00,WUHU216HW,2013-06-07 07:27:00,
2013-06-07 02:32:00,57.6,55.0,29.18,North,0,0.2,2.2,91,0.00,,,0.00,WUHU216HW,2013-06-07 07:32:00,
2013-06-07 02:37:00,57.6,55.0,29.18,North,0,1.1,2.2,91,0.00,,,0.00,WUHU216HW,2013-06-07 07:37:00,
2013-06-07 02:42:00,57.4,54.8,29.18,North,0,0.4,1.8,91,0.00,,,0.00,WUHU216HW,2013-06-07 07:42:00,
2013-06-07 02:48:00,57.2,54.4,29.18,NNE,23,0.7,1.8,90,0.00,,,0.00,WUHU216HW,2013-06-07 07:48:00,
2013-06-07 02:53:00,57.2,54.4,29.18,NNE,23,1.8,1.8,90,0.00,,,0.00,WUHU216HW,2013-06-07 07:53:00,
2013-06-07 02:58:00,57.1,54.2,29.18,North,0,0.0,1.8,90,0.00,,,0.00,WUHU216HW,2013-06-07 07:58:00,
2013-06-07 03:03:00,56.9,54.0,29.18,North,0,0.7,1.3,90,0.00,,,0.00,WUHU216HW,2013-06-07 08:03:00,
2013-06-07 03:08:00,56.9,54.0,29.18,North,0,0.0,1.3,90,0.00,,,0.00,WUHU216HW,2013-06-07 08:08:00,
2013-06-07 03:13:00,56.7,53.8,29.18,North,0,0.0,1.1,90,0.00,,,0.00,WUHU216HW,2013-06-07 08:13:00,
2013-06-07 03:18:00,56.5,53.6,29.18,North,0,0.0,1.1,90,0.00,,,0.00,WUHU216HW,2013-06-07 08:18:00,
2013-06-07 03:23:00,56.5,53.9,29.18,North,0,1.6,1.6,91,0.00,,,0.00,WUHU216HW,2013-06-07 08:23:00,
2013-06-07 03:28:00,56.5,53.9,29.18,North,0,0.0,1.6,91,0.00,,,0.00,WUHU216HW,2013-06-07 08:28:00,
2013-06-07 03:33:00,56.5,53.9,29.18,North,0,0.0,1.1,91,0.00,,,0.00,WUHU216HW,2013-06-07 08:33:00,
2013-06-07 03:38:00,56.3,53.7,29.18,North,0,0.0,0.9,91,0.00,,,0.00,WUHU216HW,2013-06-07 08:38:00,
2013-06-07 03:43:00,56.3,53.5,29.18,North,0,0.0,1.1,90,0.00,,,0.00,WUHU216HW,2013-06-07 08:43:00,
2013-06-07 03:48:00,56.2,53.3,29.18,North,0,0.0,1.1,90,0.00,,,0.00,WUHU216HW,2013-06-07 08:48:00,
2013-06-07 03:53:00,56.2,53.3,29.18,North,0,0.0,0.0,90,0.00,,,0.00,WUHU216HW,2013-06-07 08:53:00,
2013-06-07 03:58:00,56.2,53.3,29.18,North,0,0.0,0.0,90,0.00,,,0.00,WUHU216HW,2013-06-07 08:58:00,
2013-06-07 04:03:00,56.0,53.1,29.18,North,0,0.0,0.4,90,0.00,,,0.00,WUHU216HW,2013-06-07 09:03:00,
2013-06-07 04:08:00,56.0,53.1,29.18,North,0,0.0,0.4,90,0.00,,,0.00,WUHU216HW,2013-06-07 09:08:00,
2013-06-07 04:13:00,55.8,52.9,29.18,North,0,0.2,0.4,90,0.00,,,0.00,WUHU216HW,2013-06-07 09:13:00,
2013-06-07 04:19:00,55.8,52.9,29.18,NW,315,0.0,0.4,90,0.00,,,0.00,WUHU216HW,2013-06-07 09:19:00,
2013-06-07 04:24:00,55.8,53.2,29.18,North,0,1.6,1.6,91,0.00,,,0.00,WUHU216HW,2013-06-07 09:24:00,
2013-06-07 04:29:00,55.8,53.2,29.18,North,0,0.0,1.6,91,0.00,,,0.00,WUHU216HW,2013-06-07 09:29:00,
2013-06-07 04:34:00,55.8,53.5,29.18,North,0,0.4,1.8,92,0.00,,,0.00,WUHU216HW,2013-06-07 09:34:00,
2013-06-07 04:39:00,55.8,53.5,29.18,NNW,338,1.1,1.8,92,0.00,,,0.00,WUHU216HW,2013-06-07 09:39:00,
2013-06-07 04:44:00,55.6,53.3,29.18,NNW,338,1.1,1.8,92,0.00,,,0.00,WUHU216HW,2013-06-07 09:44:00,
2013-06-07 04:49:00,55.6,53.3,29.18,NNW,338,0.0,1.1,92,0.00,,,0.00,WUHU216HW,2013-06-07 09:49:00,
2013-06-07 04:54:00,55.6,53.3,29.19,NNW,338,0.0,1.3,92,0.00,,,0.00,WUHU216HW,2013-06-07 09:54:00,
2013-06-07 04:59:00,55.6,53.3,29.18,North,0,0.9,1.8,92,0.00,,,0.00,WUHU216HW,2013-06-07 09:59:00,
2013-06-07 05:04:00,55.6,53.3,29.19,North,0,1.6,1.8,92,0.00,,,0.00,WUHU216HW,2013-06-07 10:04:00,
2013-06-07 05:09:00,55.8,53.8,29.19,NNE,23,0.7,3.6,93,0.00,,,0.00,WUHU216HW,2013-06-07 10:09:00,
2013-06-07 05:14:00,55.8,53.8,29.19,North,0,0.9,4.0,93,0.00,,,0.00,WUHU216HW,2013-06-07 10:14:00,
2013-06-07 05:20:00,55.6,53.7,29.19,North,0,1.1,4.0,93,0.00,,,0.00,WUHU216HW,2013-06-07 10:20:00,
2013-06-07 05:25:00,55.6,53.7,29.19,North,0,2.2,2.2,93,0.00,,,0.00,WUHU216HW,2013-06-07 10:25:00,
2013-06-07 05:30:00,55.4,53.5,29.20,North,0,1.3,2.5,93,0.00,,,0.00,WUHU216HW,2013-06-07 10:30:00,
2013-06-07 05:35:00,55.4,53.5,29.20,North,0,4.0,4.0,93,0.00,,,0.00,WUHU216HW,2013-06-07 10:35:00,
2013-06-07 05:40:00,55.6,53.7,29.20,North,0,0.4,4.0,93,0.00,,,0.00,WUHU216HW,2013-06-07 10:40:00,
2013-06-07 05:45:00,55.6,53.7,29.20,North,0,0.9,2.9,93,0.00,,,0.00,WUHU216HW,2013-06-07 10:45:00,
2013-06-07 05:50:00,55.6,53.7,29.20,North,0,0.9,2.0,93,0.00,,,0.00,WUHU216HW,2013-06-07 10:50:00,
2013-06-07 05:55:00,55.6,53.7,29.20,North,0,0.0,1.3,93,0.00,,,0.00,WUHU216HW,2013-06-07 10:55:00,
2013-06-07 06:00:00,55.6,53.7,29.20,North,0,0.4,1.1,93,0.00,,,0.00,WUHU216HW,2013-06-07 11:00:00,
2013-06-07 06:05:00,55.6,53.7,29.20,North,0,0.0,2.2,93,0.00,,,0.00,WUHU216HW,2013-06-07 11:05:00,
2013-06-07 06:10:00,55.6,53.7,29.20,North,0,0.0,2.2,93,0.00,,,0.00,WUHU216HW,2013-06-07 11:10:00,
2013-06-07 06:15:00,55.6,53.7,29.20,North,0,0.7,1.3,93,0.00,,,0.00,WUHU216HW,2013-06-07 11:15:00,
2013-06-07 06:20:00,55.6,53.3,29.20,North,0,1.6,1.6,92,0.00,,,0.00,WUHU216HW,2013-06-07 11:20:00,
2013-06-07 06:25:00,55.8,53.5,29.20,North,0,0.4,1.6,92,0.00,,,0.00,WUHU216HW,2013-06-07 11:25:00,
2013-06-07 06:30:00,55.8,53.5,29.21,North,0,1.3,1.8,92,0.00,,,0.00,WUHU216HW,2013-06-07 11:30:00,
2013-06-07 06:35:00,55.8,53.5,29.21,North,0,0.0,2.2,92,0.00,,,0.00,WUHU216HW,2013-06-07 11:35:00,
2013-06-07 06:40:00,55.8,53.5,29.21,North,0,0.7,2.2,92,0.00,,,0.00,WUHU216HW,2013-06-07 11:40:00,
2013-06-07 06:46:00,56.2,53.8,29.21,North,0,0.7,1.3,92,0.00,,,0.00,WUHU216HW,2013-06-07 11:46:00,
2013-06-07 06:51:00,56.3,53.7,29.21,North,0,1.8,1.8,91,0.00,,,0.00,WUHU216HW,2013-06-07 11:51:00,
2013-06-07 06:56:00,56.5,53.9,29.21,North,0,0.0,1.8,91,0.00,,,0.00,WUHU216HW,2013-06-07 11:56:00,
2013-06-07 07:01:00,56.9,54.3,29.21,North,0,0.0,2.0,91,0.00,,,0.00,WUHU216HW,2013-06-07 12:01:00,
2013-06-07 07:06:00,57.1,53.8,29.21,NNW,338,0.7,2.0,89,0.00,,,0.00,WUHU216HW,2013-06-07 12:06:00,
2013-06-07 07:11:00,57.2,54.0,29.21,North,0,0.4,4.0,89,0.00,,,0.00,WUHU216HW,2013-06-07 12:11:00,
2013-06-07 07:16:00,57.2,53.7,29.21,North,0,0.9,4.0,88,0.00,,,0.00,WUHU216HW,2013-06-07 12:16:00,
2013-06-07 07:22:00,57.2,53.4,29.21,NNE,23,4.7,4.7,87,0.00,,,0.00,WUHU216HW,2013-06-07 12:22:00,
2013-06-07 07:27:00,57.2,53.7,29.22,North,0,1.1,4.7,88,0.00,,,0.00,WUHU216HW,2013-06-07 12:27:00,
2013-06-07 07:32:00,57.4,53.6,29.22,North,0,4.3,4.3,87,0.00,,,0.00,WUHU216HW,2013-06-07 12:32:00,
2013-06-07 07:37:00,57.4,53.6,29.22,North,0,1.6,4.3,87,0.00,,,0.00,WUHU216HW,2013-06-07 12:37:00,
2013-06-07 07:42:00,57.6,53.7,29.22,North,0,1.1,2.5,87,0.00,,,0.00,WUHU216HW,2013-06-07 12:42:00,
2013-06-07 07:47:00,57.6,54.1,29.22,North,0,1.1,2.0,88,0.00,,,0.00,WUHU216HW,2013-06-07 12:47:00,
2013-06-07 07:52:00,57.8,53.9,29.22,NNE,23,1.1,4.0,87,0.00,,,0.00,WUHU216HW,2013-06-07 12:52:00,
2013-06-07 07:57:00,58.0,54.1,29.22,North,0,1.1,4.0,87,0.00,,,0.00,WUHU216HW,2013-06-07 12:57:00,
2013-06-07 08:02:00,58.0,54.1,29.22,North,0,0.9,3.4,87,0.00,,,0.00,WUHU216HW,2013-06-07 13:02:00,
2013-06-07 08:07:00,58.3,53.8,29.22,North,0,1.6,2.5,85,0.00,,,0.00,WUHU216HW,2013-06-07 13:07:00,
2013-06-07 08:13:00,58.7,54.2,29.22,North,0,2.0,2.5,85,0.00,,,0.00,WUHU216HW,2013-06-07 13:13:00,
2013-06-07 08:18:00,59.0,54.5,29.22,NNE,23,0.4,2.2,85,0.00,,,0.00,WUHU216HW,2013-06-07 13:18:00,
2013-06-07 08:23:00,59.2,54.1,29.22,North,0,1.1,2.5,83,0.00,,,0.00,WUHU216HW,2013-06-07 13:23:00,
2013-06-07 08:28:00,59.4,54.3,29.23,North,0,1.8,3.1,83,0.00,,,0.00,WUHU216HW,2013-06-07 13:28:00,
2013-06-07 08:33:00,59.8,53.6,29.23,North,0,1.3,3.4,80,0.00,,,0.00,WUHU216HW,2013-06-07 13:33:00,
2013-06-07 08:38:00,59.6,53.5,29.23,North,0,1.1,4.9,80,0.00,,,0.00,WUHU216HW,2013-06-07 13:38:00,
2013-06-07 08:43:00,59.8,53.3,29.23,NNW,338,1.6,4.9,79,0.00,,,0.00,WUHU216HW,2013-06-07 13:43:00,
2013-06-07 08:48:00,59.9,53.5,29.23,North,0,1.8,3.4,79,0.00,,,0.00,WUHU216HW,2013-06-07 13:48:00,
2013-06-07 08:53:00,60.1,52.9,29.23,NE,45,0.7,3.4,77,0.00,,,0.00,WUHU216HW,2013-06-07 13:53:00,
2013-06-07 08:58:00,60.3,53.5,29.23,NNW,338,0.4,3.4,78,0.00,,,0.00,WUHU216HW,2013-06-07 13:58:00,
2013-06-07 09:03:00,60.7,53.1,29.23,NNW,338,1.3,2.5,76,0.00,,,0.00,WUHU216HW,2013-06-07 14:03:00,
2013-06-07 09:08:00,60.8,53.3,29.23,North,0,2.5,2.9,76,0.00,,,0.00,WUHU216HW,2013-06-07 14:08:00,
2013-06-07 09:13:00,60.8,53.3,29.23,North,0,1.8,3.4,76,0.00,,,0.00,WUHU216HW,2013-06-07 14:13:00,
2013-06-07 09:18:00,61.2,53.7,29.23,NNE,23,1.6,3.4,76,0.00,,,0.00,WUHU216HW,2013-06-07 14:18:00,
2013-06-07 09:23:00,61.6,53.9,29.23,NNE,23,1.8,5.4,76,0.00,,,0.00,WUHU216HW,2013-06-07 14:23:00,
2013-06-07 09:29:00,61.7,53.4,29.23,NNE,23,1.1,5.4,74,0.00,,,0.00,WUHU216HW,2013-06-07 14:29:00,
2013-06-07 09:34:00,61.9,53.2,29.23,NW,315,2.2,4.3,73,0.00,,,0.00,WUHU216HW,2013-06-07 14:34:00,
2013-06-07 09:39:00,62.5,53.6,29.23,North,0,2.2,5.1,73,0.00,,,0.00,WUHU216HW,2013-06-07 14:39:00,
2013-06-07 09:44:00,62.8,54.0,29.23,North,0,3.4,5.1,73,0.00,,,0.00,WUHU216HW,2013-06-07 14:44:00,
2013-06-07 09:49:00,63.0,53.8,29.23,NW,315,2.5,3.4,72,0.00,,,0.00,WUHU216HW,2013-06-07 14:49:00,
2013-06-07 09:54:00,63.4,54.2,29.23,NNE,23,1.6,4.0,72,0.00,,,0.00,WUHU216HW,2013-06-07 14:54:00,
2013-06-07 09:59:00,63.9,54.0,29.22,NNW,338,4.0,4.7,70,0.00,,,0.00,WUHU216HW,2013-06-07 14:59:00,
2013-06-07 10:04:00,64.3,54.4,29.23,NNW,338,2.0,4.7,70,0.00,,,0.00,WUHU216HW,2013-06-07 15:04:00,
2013-06-07 10:09:00,64.6,53.8,29.23,North,0,0.4,5.6,68,0.00,,,0.00,WUHU216HW,2013-06-07 15:09:00,
2013-06-07 10:14:00,64.8,53.6,29.23,NNW,338,0.7,6.9,67,0.00,,,0.00,WUHU216HW,2013-06-07 15:14:00,
2013-06-07 10:19:00,65.2,54.4,29.23,NNE,23,2.5,6.9,68,0.00,,,0.00,WUHU216HW,2013-06-07 15:19:00,
2013-06-07 10:24:00,66.1,54.4,29.23,NNW,338,4.5,6.3,66,0.00,,,0.00,WUHU216HW,2013-06-07 15:24:00,
2013-06-07 10:29:00,66.4,54.7,29.23,North,0,2.0,6.3,66,0.00,,,0.00,WUHU216HW,2013-06-07 15:29:00,
2013-06-07 10:34:00,67.1,55.8,29.23,North,0,4.3,6.3,67,0.00,,,0.00,WUHU216HW,2013-06-07 15:34:00,
2013-06-07 10:40:00,67.3,55.1,29.23,NNW,338,3.4,5.6,65,0.00,,,0.00,WUHU216HW,2013-06-07 15:40:00,
2013-06-07 10:45:00,67.3,54.7,29.23,NW,315,1.6,6.7,64,0.00,,,0.00,WUHU216HW,2013-06-07 15:45:00,
2013-06-07 10:50:00,67.1,54.6,29.22,North,0,4.7,6.5,64,0.00,,,0.00,WUHU216HW,2013-06-07 15:50:00,
2013-06-07 10:55:00,67.9,56.1,29.22,NW,315,3.6,6.5,66,0.00,,,0.00,WUHU216HW,2013-06-07 15:55:00,
2013-06-07 11:00:00,68.2,55.1,29.22,North,0,3.8,4.9,63,0.00,,,0.00,WUHU216HW,2013-06-07 16:00:00,
2013-06-07 11:05:00,67.9,55.6,29.22,NE,45,1.3,5.8,65,0.00,,,0.00,WUHU216HW,2013-06-07 16:05:00,
2013-06-07 11:10:00,68.4,55.7,29.22,North,0,5.8,6.9,64,0.00,,,0.00,WUHU216HW,2013-06-07 16:10:00,
2013-06-07 11:15:00,68.9,55.4,29.22,North,0,3.1,6.9,62,0.00,,,0.00,WUHU216HW,2013-06-07 16:15:00,
2013-06-07 11:20:00,68.8,56.1,29.22,North,0,1.8,6.5,64,0.00,,,0.00,WUHU216HW,2013-06-07 16:20:00,
2013-06-07 11:25:00,68.9,54.5,29.22,NNW,338,4.3,6.5,60,0.00,,,0.00,WUHU216HW,2013-06-07 16:25:00,
2013-06-07 11:30:00,68.9,55.8,29.22,NNE,23,2.5,5.4,63,0.00,,,0.00,WUHU216HW,2013-06-07 16:30:00,
2013-06-07 11:35:00,68.8,55.6,29.22,North,0,4.9,4.9,63,0.00,,,0.00,WUHU216HW,2013-06-07 16:35:00,
2013-06-07 11:41:00,69.1,56.0,29.22,NNW,338,2.2,4.9,63,0.00,,,0.00,WUHU216HW,2013-06-07 16:41:00,
2013-06-07 11:46:00,69.5,54.5,29.22,SE,135,2.0,5.4,59,0.00,,,0.00,WUHU216HW,2013-06-07 16:46:00,
2013-06-07 11:51:00,69.8,55.9,29.22,North,0,6.3,6.3,61,0.00,,,0.00,WUHU216HW,2013-06-07 16:51:00,
2013-06-07 11:56:00,70.0,56.4,29.22,NE,45,1.8,6.3,62,0.00,,,0.00,WUHU216HW,2013-06-07 16:56:00,
2013-06-07 12:01:00,70.2,55.8,29.22,North,0,2.9,5.6,60,0.00,,,0.00,WUHU216HW,2013-06-07 17:01:00,
2013-06-07 12:06:00,70.2,56.6,29.22,NNW,338,1.1,5.6,62,0.00,,,0.00,WUHU216HW,2013-06-07 17:06:00,
2013-06-07 12:12:00,70.0,55.6,29.22,NNE,23,2.0,3.6,60,0.00,,,0.00,WUHU216HW,2013-06-07 17:12:00,
2013-06-07 12:17:00,69.8,54.9,29.22,North,0,5.4,5.4,59,0.00,,,0.00,WUHU216HW,2013-06-07 17:17:00,
2013-06-07 12:22:00,69.8,55.4,29.22,NNW,338,3.1,5.4,60,0.00,,,0.00,WUHU216HW,2013-06-07 17:22:00,
2013-06-07 12:27:00,70.2,55.3,29.22,NNE,23,5.1,5.1,59,0.00,,,0.00,WUHU216HW,2013-06-07 17:27:00,
2013-06-07 12:32:00,69.8,54.9,29.22,NNW,338,4.0,5.1,59,0.00,,,0.00,WUHU216HW,2013-06-07 17:32:00,
2013-06-07 12:37:00,69.1,55.2,29.22,NNW,338,1.8,4.7,61,0.00,,,0.00,WUHU216HW,2013-06-07 17:37:00,
2013-06-07 12:42:00,69.3,56.2,29.22,NNE,23,1.8,4.7,63,0.00,,,0.00,WUHU216HW,2013-06-07 17:42:00,
2013-06-07 12:47:00,69.1,55.5,29.22,ENE,68,1.8,5.4,62,0.00,,,0.00,WUHU216HW,2013-06-07 17:47:00,
2013-06-07 12:52:00,69.3,55.7,29.22,North,0,1.1,5.4,62,0.00,,,0.00,WUHU216HW,2013-06-07 17:52:00,
2013-06-07 12:57:00,69.5,55.5,29.22,East,90,2.9,4.0,61,0.00,,,0.00,WUHU216HW,2013-06-07 17:57:00,
2013-06-07 13:03:00,69.5,55.1,29.22,North,0,3.4,3.4,60,0.00,,,0.00,WUHU216HW,2013-06-07 18:03:00,
2013-06-07 13:08:00,69.7,55.3,29.21,NW,315,0.9,3.6,60,0.00,,,0.00,WUHU216HW,2013-06-07 18:08:00,
2013-06-07 13:13:00,69.7,55.7,29.21,NE,45,1.1,3.6,61,0.00,,,0.00,WUHU216HW,2013-06-07 18:13:00,
2013-06-07 13:18:00,70.2,54.7,29.21,NNW,338,3.4,5.4,58,0.00,,,0.00,WUHU216HW,2013-06-07 18:18:00,
2013-06-07 13:24:00,70.0,55.6,29.21,North,0,1.8,3.4,60,0.00,,,0.00,WUHU216HW,2013-06-07 18:24:00,
2013-06-07 13:29:00,70.4,55.9,29.21,NNE,23,1.3,4.7,60,0.00,,,0.00,WUHU216HW,2013-06-07 18:29:00,
2013-06-07 13:34:00,70.9,56.4,29.21,North,0,4.0,4.7,60,0.00,,,0.00,WUHU216HW,2013-06-07 18:34:00,
2013-06-07 13:39:00,71.5,56.9,29.21,NNW,338,1.6,4.0,60,0.00,,,0.00,WUHU216HW,2013-06-07 18:39:00,
2013-06-07 13:44:00,71.6,56.5,29.21,NNW,338,2.7,3.4,59,0.00,,,0.00,WUHU216HW,2013-06-07 18:44:00,
2013-06-07 13:49:00,71.6,57.1,29.21,NE,45,1.3,3.4,60,0.00,,,0.00,WUHU216HW,2013-06-07 18:49:00,
2013-06-07 13:54:00,72.0,56.9,29.21,WSW,248,1.1,2.0,59,0.00,,,0.00,WUHU216HW,2013-06-07 18:54:00,
2013-06-07 13:59:00,71.6,56.1,29.21,NNW,338,2.2,2.2,58,0.00,,,0.00,WUHU216HW,2013-06-07 18:59:00,
2013-06-07 14:04:00,71.3,56.3,29.21,NNE,23,2.2,2.5,59,0.00,,,0.00,WUHU216HW,2013-06-07 19:04:00,
2013-06-07 14:10:00,71.5,56.4,29.21,NNW,338,1.1,2.5,59,0.00,,,0.00,WUHU216HW,2013-06-07 19:10:00,
2013-06-07 14:15:00,71.6,57.5,29.21,ENE,68,2.2,2.2,61,0.00,,,0.00,WUHU216HW,2013-06-07 19:15:00,
2013-06-07 14:20:00,71.6,56.5,29.21,North,0,1.8,2.2,59,0.00,,,0.00,WUHU216HW,2013-06-07 19:20:00,
2013-06-07 14:25:00,72.0,58.2,29.21,NE,45,1.6,1.8,62,0.00,,,0.00,WUHU216HW,2013-06-07 19:25:00,
2013-06-07 14:30:00,72.2,55.5,29.21,North,0,2.0,2.2,56,0.00,,,0.00,WUHU216HW,2013-06-07 19:30:00,
2013-06-07 14:35:00,72.0,56.3,29.21,NW,315,2.2,5.1,58,0.00,,,0.00,WUHU216HW,2013-06-07 19:35:00,
2013-06-07 14:41:00,72.0,57.8,29.21,North,0,1.3,5.1,61,0.00,,,0.00,WUHU216HW,2013-06-07 19:41:00,
2013-06-07 14:46:00,72.0,56.9,29.21,North,0,1.8,2.5,59,0.00,,,0.00,WUHU216HW,2013-06-07 19:46:00,
2013-06-07 14:51:00,71.6,56.5,29.20,North,0,2.5,3.6,59,0.00,,,0.00,WUHU216HW,2013-06-07 19:51:00,
2013-06-07 14:56:00,71.8,57.7,29.20,North,0,0.4,3.6,61,0.00,,,0.00,WUHU216HW,2013-06-07 19:56:00,
2013-06-07 15:01:00,71.6,56.5,29.20,NNW,338,1.1,2.7,59,0.00,,,0.00,WUHU216HW,2013-06-07 20:01:00,
2013-06-07 15:06:00,72.2,56.5,29.20,North,0,1.8,2.0,58,0.00,,,0.00,WUHU216HW,2013-06-07 20:06:00,
2013-06-07 15:11:00,72.2,56.5,29.20,North,0,4.0,4.7,58,0.00,,,0.00,WUHU216HW,2013-06-07 20:11:00,
2013-06-07 15:17:00,72.7,57.5,29.20,West,270,2.2,4.7,59,0.00,,,0.00,WUHU216HW,2013-06-07 20:17:00,
2013-06-07 15:22:00,73.1,56.9,29.20,North,0,1.8,4.3,57,0.00,,,0.00,WUHU216HW,2013-06-07 20:22:00,
2013-06-07 15:27:00,73.8,57.5,29.20,NE,45,4.3,4.3,57,0.00,,,0.00,WUHU216HW,2013-06-07 20:27:00,
2013-06-07 15:33:00,73.8,57.1,29.20,North,0,2.0,4.3,56,0.00,,,0.00,WUHU216HW,2013-06-07 20:33:00,
2013-06-07 15:38:00,73.6,57.3,29.20,ENE,68,1.1,3.8,57,0.00,,,0.00,WUHU216HW,2013-06-07 20:38:00,
2013-06-07 15:43:00,73.4,57.2,29.20,North,0,1.1,3.8,57,0.00,,,0.00,WUHU216HW,2013-06-07 20:43:00,
2013-06-07 15:48:00,73.4,56.7,29.19,North,0,2.2,2.5,56,0.00,,,0.00,WUHU216HW,2013-06-07 20:48:00,
2013-06-07 15:53:00,73.8,57.5,29.19,West,270,0.4,2.5,57,0.00,,,0.00,WUHU216HW,2013-06-07 20:53:00,
2013-06-07 15:58:00,73.8,57.1,29.19,North,0,1.3,3.8,56,0.00,,,0.00,WUHU216HW,2013-06-07 20:58:00,
2013-06-07 16:03:00,73.1,56.9,29.19,North,0,0.7,4.7,57,0.00,,,0.00,WUHU216HW,2013-06-07 21:03:00,
2013-06-07 16:08:00,73.4,57.2,29.19,NE,45,3.1,4.7,57,0.00,,,0.00,WUHU216HW,2013-06-07 21:08:00,
2013-06-07 16:13:00,73.6,57.3,29.19,NW,315,1.8,3.4,57,0.00,,,0.00,WUHU216HW,2013-06-07 21:13:00,
2013-06-07 16:18:00,73.3,56.0,29.19,NNW,338,1.1,2.9,55,0.00,,,0.00,WUHU216HW,2013-06-07 21:18:00,
2013-06-07 16:23:00,73.4,56.2,29.19,NNW,338,0.9,2.9,55,0.00,,,0.00,WUHU216HW,2013-06-07 21:23:00,
2013-06-07 16:29:00,73.3,55.5,29.19,NE,45,1.8,2.7,54,0.00,,,0.00,WUHU216HW,2013-06-07 21:29:00,
2013-06-07 16:34:00,73.1,55.4,29.19,North,0,1.6,2.7,54,0.00,,,0.00,WUHU216HW,2013-06-07 21:34:00,
2013-06-07 16:39:00,73.8,56.5,29.19,NW,315,2.2,3.1,55,0.00,,,0.00,WUHU216HW,2013-06-07 21:39:00,
2013-06-07 16:44:00,73.8,56.0,29.18,North,0,0.4,3.1,54,0.00,,,0.00,WUHU216HW,2013-06-07 21:44:00,
2013-06-07 16:49:00,73.4,56.2,29.18,NNW,338,0.4,3.4,55,0.00,,,0.00,WUHU216HW,2013-06-07 21:49:00,
2013-06-07 16:54:00,74.0,57.3,29.18,North,0,2.2,3.4,56,0.00,,,0.00,WUHU216HW,2013-06-07 21:54:00,
2013-06-07 16:59:00,74.3,54.5,29.18,North,0,1.8,3.1,50,0.00,,,0.00,WUHU216HW,2013-06-07 21:59:00,
2013-06-07 17:04:00,74.0,55.7,29.18,NNW,338,1.3,5.6,53,0.00,,,0.00,WUHU216HW,2013-06-07 22:04:00,
2013-06-07 17:09:00,74.5,55.3,29.18,North,0,2.5,5.6,51,0.00,,,0.00,WUHU216HW,2013-06-07 22:09:00,
2013-06-07 17:14:00,74.5,55.7,29.18,WNW,293,2.5,3.6,52,0.00,,,0.00,WUHU216HW,2013-06-07 22:14:00,
2013-06-07 17:19:00,74.2,55.9,29.18,NNW,338,1.1,3.6,53,0.00,,,0.00,WUHU216HW,2013-06-07 22:19:00,
2013-06-07 17:25:00,73.8,56.0,29.18,NNW,338,2.0,2.2,54,0.00,,,0.00,WUHU216HW,2013-06-07 22:25:00,
2013-06-07 17:30:00,73.8,56.0,29.18,South,180,1.1,2.0,54,0.00,,,0.00,WUHU216HW,2013-06-07 22:30:00,
2013-06-07 17:35:00,73.6,55.8,29.18,NNW,338,3.1,4.0,54,0.00,,,0.00,WUHU216HW,2013-06-07 22:35:00,
2013-06-07 17:40:00,72.9,54.6,29.18,NNW,338,0.9,4.0,53,0.00,,,0.00,WUHU216HW,2013-06-07 22:40:00,
2013-06-07 17:45:00,73.3,57.0,29.18,NNE,23,2.5,4.0,57,0.00,,,0.00,WUHU216HW,2013-06-07 22:45:00,
2013-06-07 17:50:00,73.6,55.8,29.18,NNE,23,2.7,2.7,54,0.00,,,0.00,WUHU216HW,2013-06-07 22:50:00,
2013-06-07 17:55:00,73.8,56.5,29.18,ESE,113,2.0,2.7,55,0.00,,,0.00,WUHU216HW,2013-06-07 22:55:00,
2013-06-07 18:00:00,73.4,55.6,29.18,NE,45,1.6,2.0,54,0.00,,,0.00,WUHU216HW,2013-06-07 23:00:00,
2013-06-07 18:05:00,73.3,55.5,29.18,ENE,68,1.3,2.5,54,0.00,,,0.00,WUHU216HW,2013-06-07 23:05:00,
2013-06-07 18:10:00,73.4,56.2,29.18,NNE,23,1.1,2.5,55,0.00,,,0.00,WUHU216HW,2013-06-07 23:10:00,
2013-06-07 18:15:00,73.1,56.3,29.18,SE,135,0.4,1.8,56,0.00,,,0.00,WUHU216HW,2013-06-07 23:15:00,
2013-06-07 18:21:00,73.4,57.2,29.18,ESE,113,0.2,1.8,57,0.00,,,0.00,WUHU216HW,2013-06-07 23:21:00,
2013-06-07 18:26:00,74.3,57.6,29.18,East,90,0.4,1.6,56,0.00,,,0.00,WUHU216HW,2013-06-07 23:26:00,
2013-06-07 18:31:00,76.9,57.4,29.18,NE,45,1.6,1.8,51,0.00,,,0.00,WUHU216HW,2013-06-07 23:31:00,
2013-06-07 18:36:00,77.6,55.7,29.18,North,0,1.8,2.7,47,0.00,,,0.00,WUHU216HW,2013-06-07 23:36:00,
2013-06-07 18:41:00,78.5,57.8,29.18,North,0,0.4,2.7,49,0.00,,,0.00,WUHU216HW,2013-06-07 23:41:00,
2013-06-07 18:46:00,78.5,56.5,29.18,NNE,23,0.9,2.2,47,0.00,,,0.00,WUHU216HW,2013-06-07 23:46:00,
2013-06-07 18:51:00,78.1,57.4,29.18,ENE,68,2.0,2.2,49,0.00,,,0.00,WUHU216HW,2013-06-07 23:51:00,
2013-06-07 18:56:00,78.5,57.8,29.18,NNE,23,1.1,2.9,49,0.00,,,0.00,WUHU216HW,2013-06-07 23:56:00,
2013-06-07 19:01:00,77.6,57.0,29.18,NNE,23,0.7,2.9,49,0.00,,,0.00,WUHU216HW,2013-06-08 00:01:00,
2013-06-07 19:07:00,76.5,56.6,29.18,NE,45,0.0,0.9,50,0.00,,,0.00,WUHU216HW,2013-06-08 00:07:00,
2013-06-07 19:12:00,75.4,56.6,29.18,NE,45,0.0,0.7,52,0.00,,,0.00,WUHU216HW,2013-06-08 00:12:00,
2013-06-07 19:17:00,74.0,55.2,29.18,NE,45,0.4,0.9,52,0.00,,,0.00,WUHU216HW,2013-06-08 00:17:00,
2013-06-07 19:22:00,73.4,56.2,29.18,NE,45,0.2,0.7,55,0.00,,,0.00,WUHU216HW,2013-06-08 00:22:00,
2013-06-07 19:27:00,73.1,55.8,29.18,ENE,68,0.0,0.7,55,0.00,,,0.00,WUHU216HW,2013-06-08 00:27:00,
2013-06-07 19:32:00,72.9,55.7,29.18,ENE,68,0.0,0.4,55,0.00,,,0.00,WUHU216HW,2013-06-08 00:32:00,
2013-06-07 19:37:00,72.7,56.0,29.18,ENE,68,0.0,0.4,56,0.00,,,0.00,WUHU216HW,2013-06-08 00:37:00,
2013-06-07 19:42:00,72.7,56.5,29.18,ENE,68,0.0,0.4,57,0.00,,,0.00,WUHU216HW,2013-06-08 00:42:00,
2013-06-07 19:48:00,72.5,55.9,29.18,North,0,0.0,0.9,56,0.00,,,0.00,WUHU216HW,2013-06-08 00:48:00,
2013-06-07 19:53:00,72.4,56.7,29.18,North,0,0.0,0.4,58,0.00,,,0.00,WUHU216HW,2013-06-08 00:53:00,
2013-06-07 19:58:00,72.0,56.3,29.18,NNE,23,0.0,0.2,58,0.00,,,0.00,WUHU216HW,2013-06-08 00:58:00,
2013-06-07 20:03:00,71.8,56.7,29.18,NNE,23,0.0,0.2,59,0.00,,,0.00,WUHU216HW,2013-06-08 01:03:00,
2013-06-07 20:08:00,71.5,56.9,29.18,NNE,23,0.0,0.0,60,0.00,,,0.00,WUHU216HW,2013-06-08 01:08:00,
2013-06-07 20:13:00,70.9,56.4,29.18,North,0,0.0,0.0,60,0.00,,,0.00,WUHU216HW,2013-06-08 01:13:00,
2013-06-07 20:18:00,70.2,55.8,29.18,North,0,0.0,0.0,60,0.00,,,0.00,WUHU216HW,2013-06-08 01:18:00,
2013-06-07 20:24:00,69.7,55.7,29.18,North,0,0.0,0.0,61,0.00,,,0.00,WUHU216HW,2013-06-08 01:24:00,
2013-06-07 20:29:00,68.6,55.0,29.19,North,0,0.0,0.0,62,0.00,,,0.00,WUHU216HW,2013-06-08 01:29:00,
2013-06-07 20:34:00,67.7,54.6,29.18,North,0,0.0,0.0,63,0.00,,,0.00,WUHU216HW,2013-06-08 01:34:00,
2013-06-07 20:39:00,67.3,54.7,29.18,North,0,0.0,0.0,64,0.00,,,0.00,WUHU216HW,2013-06-08 01:39:00,
2013-06-07 20:44:00,67.0,54.4,29.18,North,0,0.0,0.0,64,0.00,,,0.00,WUHU216HW,2013-06-08 01:44:00,
2013-06-07 20:49:00,66.6,54.5,29.18,North,0,0.0,0.0,65,0.00,,,0.00,WUHU216HW,2013-06-08 01:49:00,
2013-06-07 20:54:00,65.5,53.8,29.18,North,0,0.0,0.0,66,0.00,,,0.00,WUHU216HW,2013-06-08 01:54:00,
2013-06-07 20:59:00,64.8,54.0,29.18,North,0,0.0,0.0,68,0.00,,,0.00,WUHU216HW,2013-06-08 01:59:00,
2013-06-07 21:05:00,64.3,53.9,29.19,North,0,0.0,0.0,69,0.00,,,0.00,WUHU216HW,2013-06-08 02:05:00,
2013-06-07 21:10:00,64.1,53.7,29.18,North,0,0.0,0.0,69,0.00,,,0.00,WUHU216HW,2013-06-08 02:10:00,
2013-06-07 21:15:00,63.7,53.8,29.18,North,0,0.0,0.0,70,0.00,,,0.00,WUHU216HW,2013-06-08 02:15:00,
2013-06-07 21:20:00,63.2,53.3,29.19,North,0,0.0,0.0,70,0.00,,,0.00,WUHU216HW,2013-06-08 02:20:00,
2013-06-07 21:25:00,62.8,53.6,29.19,North,0,0.0,0.0,72,0.00,,,0.00,WUHU216HW,2013-06-08 02:25:00,
2013-06-07 21:30:00,62.3,53.1,29.19,North,0,0.0,0.0,72,0.00,,,0.00,WUHU216HW,2013-06-08 02:30:00,
2013-06-07 21:35:00,62.1,53.4,29.19,North,0,0.0,0.0,73,0.00,,,0.00,WUHU216HW,2013-06-08 02:35:00,
2013-06-07 21:40:00,61.9,52.8,29.19,North,0,0.0,0.0,72,0.00,,,0.00,WUHU216HW,2013-06-08 02:40:00,
2013-06-07 21:46:00,61.6,52.8,29.19,North,0,0.0,0.0,73,0.00,,,0.00,WUHU216HW,2013-06-08 02:46:00,
2013-06-07 21:51:00,61.6,52.8,29.19,North,0,0.0,0.0,73,0.00,,,0.00,WUHU216HW,2013-06-08 02:51:00,
2013-06-07 21:56:00,61.4,52.7,29.19,North,0,0.0,0.0,73,0.00,,,0.00,WUHU216HW,2013-06-08 02:56:00,
2013-06-07 22:01:00,61.4,52.7,29.20,North,0,0.0,0.0,73,0.00,,,0.00,WUHU216HW,2013-06-08 03:01:00,
2013-06-07 22:07:00,61.2,52.6,29.20,North,0,0.0,0.0,73,0.00,,,0.00,WUHU216HW,2013-06-08 03:07:00,
2013-06-07 22:12:00,61.0,52.4,29.20,North,0,0.0,0.0,73,0.00,,,0.00,WUHU216HW,2013-06-08 03:12:00,
2013-06-07 22:17:00,60.8,52.2,29.20,North,0,0.0,0.0,73,0.00,,,0.00,WUHU216HW,2013-06-08 03:17:00,
2013-06-07 22:22:00,60.7,52.4,29.20,North,0,0.0,0.0,74,0.00,,,0.00,WUHU216HW,2013-06-08 03:22:00,
2013-06-07 22:27:00,60.5,52.2,29.20,North,0,0.0,0.0,74,0.00,,,0.00,WUHU216HW,2013-06-08 03:27:00,
2013-06-07 22:33:00,60.1,52.2,29.19,North,0,0.0,0.0,75,0.00,,,0.00,WUHU216HW,2013-06-08 03:33:00,
2013-06-07 22:38:00,59.9,52.0,29.19,North,0,0.0,0.0,75,0.00,,,0.00,WUHU216HW,2013-06-08 03:38:00,
2013-06-07 22:44:00,59.8,51.8,29.20,North,0,0.0,0.0,75,0.00,,,0.00,WUHU216HW,2013-06-08 03:44:00,
2013-06-07 22:49:00,59.6,52.0,29.20,North,0,0.0,0.0,76,0.00,,,0.00,WUHU216HW,2013-06-08 03:49:00,
2013-06-07 22:54:00,59.4,51.8,29.20,North,0,0.0,0.0,76,0.00,,,0.00,WUHU216HW,2013-06-08 03:54:00,
2013-06-07 22:59:00,59.2,51.7,29.20,North,0,0.0,0.0,76,0.00,,,0.00,WUHU216HW,2013-06-08 03:59:00,
2013-06-07 23:01:00,59.0,51.5,29.20,North,0,0.0,0.0,76,0.00,,,0.00,WUHU216HW,2013-06-08 04:01:00,
2013-06-07 23:02:00,59.0,51.8,29.20,North,0,0.0,0.0,77,0.00,,,0.00,WUHU216HW,2013-06-08 04:02:00,
2013-06-07 23:07:00,58.9,51.7,29.20,North,0,0.0,0.0,77,0.00,,,0.00,WUHU216HW,2013-06-08 04:07:00,
2013-06-07 23:12:00,58.7,51.8,29.20,North,0,0.0,0.0,78,0.00,,,0.00,WUHU216HW,2013-06-08 04:12:00,
2013-06-07 23:18:00,58.5,51.7,29.20,North,0,0.0,0.0,78,0.00,,,0.00,WUHU216HW,2013-06-08 04:18:00,
2013-06-07 23:23:00,58.3,51.8,29.20,North,0,0.0,0.0,79,0.00,,,0.00,WUHU216HW,2013-06-08 04:23:00,
2013-06-07 23:28:00,58.3,51.8,29.20,North,0,0.0,0.0,79,0.00,,,0.00,WUHU216HW,2013-06-08 04:28:00,
2013-06-07 23:33:00,58.1,51.7,29.20,North,0,0.0,0.0,79,0.00,,,0.00,WUHU216HW,2013-06-08 04:33:00,
2013-06-07 23:38:00,58.0,51.8,29.20,North,0,0.4,0.4,80,0.00,,,0.00,WUHU216HW,2013-06-08 04:38:00,
2013-06-07 23:43:00,57.8,51.7,29.20,North,0,0.0,0.4,80,0.00,,,0.00,WUHU216HW,2013-06-08 04:43:00,
2013-06-07 23:48:00,57.6,51.9,29.19,North,0,0.0,0.4,81,0.00,,,0.00,WUHU216HW,2013-06-08 04:48:00,
2013-06-07 23:53:00,57.4,51.7,29.20,North,0,0.0,0.0,81,0.00,,,0.00,WUHU216HW,2013-06-08 04:53:00,
2013-06-07 23:58:00,57.2,51.5,29.19,North,0,0.0,0.0,81,0.00,,,0.00,WUHU216HW,2013-06-08 04:58:00,